createdAt,value
2022-12-29T00:01:16.139Z,0
2022-12-29T00:02:32.403Z,0
2022-12-29T00:03:48.679Z,0
2022-12-29T00:05:05.016Z,0
2022-12-29T00:06:21.304Z,0
2022-12-29T00:07:37.606Z,0
2022-12-29T00:08:52.867Z,0
2022-12-29T00:10:09.163Z,0
2022-12-29T00:11:25.457Z,0
2022-12-29T00:12:41.786Z,0
2022-12-29T00:13:58.082Z,0
2022-12-29T00:15:14.371Z,0
2022-12-29T00:16:30.631Z,0
2022-12-29T00:17:46.957Z,0
2022-12-29T00:19:03.251Z,0
2022-12-29T00:20:19.540Z,0
2022-12-29T00:21:35.833Z,0
2022-12-29T00:22:52.130Z,0
2022-12-29T00:24:08.429Z,0
2022-12-29T00:25:23.704Z,0
2022-12-29T00:26:39.991Z,0
2022-12-29T00:27:56.317Z,0
2022-12-29T00:29:12.612Z,0
2022-12-29T00:30:28.876Z,0
2022-12-29T00:31:45.199Z,0
2022-12-29T00:33:01.467Z,0
2022-12-29T00:34:17.761Z,0
2022-12-29T00:35:34.043Z,0
2022-12-29T00:36:50.336Z,0
2022-12-29T00:38:06.665Z,0
2022-12-29T00:39:22.928Z,0
2022-12-29T00:40:39.218Z,0
2022-12-29T00:41:54.570Z,0
2022-12-29T00:43:10.856Z,0
2022-12-29T00:44:27.154Z,0
2022-12-29T00:45:43.406Z,0
2022-12-29T00:46:59.738Z,0
2022-12-29T00:48:16.025Z,0
2022-12-29T00:49:32.299Z,0
2022-12-29T00:50:48.616Z,0
2022-12-29T00:52:04.917Z,0
2022-12-29T00:53:21.180Z,0
2022-12-29T00:54:37.461Z,0
2022-12-29T00:55:53.760Z,0
2022-12-29T00:57:10.048Z,0
2022-12-29T00:58:25.361Z,0
2022-12-29T00:59:41.689Z,0
2022-12-29T01:00:57.942Z,0
2022-12-29T01:02:14.281Z,0
2022-12-29T01:03:30.573Z,0
2022-12-29T01:04:46.865Z,0
2022-12-29T01:06:03.127Z,0
2022-12-29T01:07:19.448Z,0
2022-12-29T01:08:35.721Z,0
2022-12-29T01:09:52.033Z,0
2022-12-29T01:11:08.293Z,0
2022-12-29T01:12:24.591Z,0
2022-12-29T01:13:40.895Z,0
2022-12-29T01:14:56.233Z,0
2022-12-29T01:16:12.481Z,0
2022-12-29T01:17:28.807Z,0
2022-12-29T01:18:45.085Z,0
2022-12-29T01:20:01.366Z,0
2022-12-29T01:21:17.659Z,0
2022-12-29T01:22:33.994Z,0
2022-12-29T01:23:50.240Z,0
2022-12-29T01:25:06.535Z,0
2022-12-29T01:26:22.833Z,0
2022-12-29T01:27:39.163Z,0
2022-12-29T01:28:55.420Z,0
2022-12-29T01:30:11.750Z,0
2022-12-29T01:31:27.017Z,0
2022-12-29T01:32:43.313Z,0
2022-12-29T01:33:59.605Z,0
2022-12-29T01:35:15.930Z,0
2022-12-29T01:36:32.233Z,0
2022-12-29T01:37:48.531Z,0
2022-12-29T01:39:04.791Z,0
2022-12-29T01:40:21.081Z,0
2022-12-29T01:41:37.367Z,0
2022-12-29T01:42:53.669Z,0
2022-12-29T01:44:09.956Z,0
2022-12-29T01:45:26.281Z,0
2022-12-29T01:46:42.553Z,0
2022-12-29T01:47:57.890Z,0
2022-12-29T01:49:14.179Z,0
2022-12-29T01:50:30.471Z,0
2022-12-29T01:51:46.740Z,0
2022-12-29T01:53:03.071Z,0
2022-12-29T01:54:19.315Z,0
2022-12-29T01:55:35.645Z,0
2022-12-29T01:56:51.913Z,0
2022-12-29T01:58:08.197Z,0
2022-12-29T01:59:24.498Z,0
2022-12-29T02:00:40.819Z,0
2022-12-29T02:01:57.086Z,0
2022-12-29T02:03:13.412Z,0
2022-12-29T02:04:29.676Z,0
2022-12-29T02:05:44.989Z,0
2022-12-29T02:07:01.284Z,0
2022-12-29T02:08:17.560Z,0
2022-12-29T02:09:33.859Z,0
2022-12-29T02:10:50.158Z,0
2022-12-29T02:12:06.483Z,0
2022-12-29T02:13:22.766Z,0
2022-12-29T02:14:39.064Z,0
2022-12-29T02:15:55.354Z,0
2022-12-29T02:17:11.647Z,0
2022-12-29T02:18:27.905Z,0
2022-12-29T02:19:44.204Z,0
2022-12-29T02:21:00.529Z,0
2022-12-29T02:22:15.841Z,0
2022-12-29T02:23:32.137Z,0
2022-12-29T02:24:48.397Z,0
2022-12-29T02:26:04.718Z,0
2022-12-29T02:27:20.976Z,0
2022-12-29T02:28:37.312Z,0
2022-12-29T02:29:53.564Z,0
2022-12-29T02:31:09.891Z,0
2022-12-29T02:32:26.149Z,0
2022-12-29T02:33:42.443Z,0
2022-12-29T02:34:58.744Z,0
2022-12-29T02:36:15.040Z,0
2022-12-29T02:37:31.333Z,0
2022-12-29T02:38:46.667Z,0
2022-12-29T02:40:02.959Z,0
2022-12-29T02:41:19.238Z,0
2022-12-29T02:42:35.560Z,0
2022-12-29T02:43:51.808Z,0
2022-12-29T02:45:08.114Z,0
2022-12-29T02:46:24.395Z,0
2022-12-29T02:47:40.737Z,0
2022-12-29T02:48:56.989Z,0
2022-12-29T02:50:13.305Z,0
2022-12-29T02:51:29.575Z,0
2022-12-29T02:52:45.901Z,0
2022-12-29T02:54:02.156Z,0
2022-12-29T02:55:17.469Z,0
2022-12-29T02:56:33.764Z,0
2022-12-29T02:57:50.062Z,0
2022-12-29T02:59:06.351Z,0
2022-12-29T03:00:22.651Z,0
2022-12-29T03:01:37.988Z,0
2022-12-29T03:02:54.241Z,0
2022-12-29T03:04:10.571Z,0
2022-12-29T03:05:26.840Z,0
2022-12-29T03:06:43.122Z,0
2022-12-29T03:07:59.451Z,0
2022-12-29T03:09:15.748Z,0
2022-12-29T03:10:32.011Z,0
2022-12-29T03:11:48.306Z,0
2022-12-29T03:13:04.607Z,0
2022-12-29T03:14:20.919Z,0
2022-12-29T03:15:37.189Z,0
2022-12-29T03:16:53.471Z,0
2022-12-29T03:18:08.793Z,0
2022-12-29T03:19:25.113Z,0
2022-12-29T03:20:41.410Z,0
2022-12-29T03:21:57.667Z,0
2022-12-29T03:23:13.996Z,0
2022-12-29T03:24:30.292Z,0
2022-12-29T03:25:46.592Z,0
2022-12-29T03:27:02.878Z,0
2022-12-29T03:28:19.136Z,0
2022-12-29T03:29:35.427Z,0
2022-12-29T03:30:51.763Z,0
2022-12-29T03:32:08.055Z,0
2022-12-29T03:33:24.323Z,0
2022-12-29T03:34:39.654Z,0
2022-12-29T03:35:55.931Z,0
2022-12-29T03:37:12.244Z,0
2022-12-29T03:38:28.533Z,0
2022-12-29T03:39:44.833Z,0
2022-12-29T03:41:01.091Z,0
2022-12-29T03:42:17.424Z,0
2022-12-29T03:43:33.684Z,0
2022-12-29T03:44:50.011Z,0
2022-12-29T03:46:06.299Z,0
2022-12-29T03:47:22.592Z,0
2022-12-29T03:48:38.864Z,0
2022-12-29T03:49:55.182Z,0
2022-12-29T03:51:10.454Z,0
2022-12-29T03:52:26.799Z,0
2022-12-29T03:53:43.056Z,0
2022-12-29T03:54:59.351Z,0
2022-12-29T03:56:15.630Z,0
2022-12-29T03:57:31.958Z,0
2022-12-29T03:58:48.257Z,0
2022-12-29T04:00:04.514Z,0
2022-12-29T04:01:20.839Z,0
2022-12-29T04:02:37.096Z,0
2022-12-29T04:03:53.399Z,0
2022-12-29T04:05:09.688Z,0
2022-12-29T04:06:25.979Z,0
2022-12-29T04:07:41.327Z,0
2022-12-29T04:08:57.617Z,0
2022-12-29T04:10:13.913Z,0
2022-12-29T04:11:30.189Z,0
2022-12-29T04:12:46.464Z,0
2022-12-29T04:14:02.773Z,0
2022-12-29T04:15:19.053Z,0
2022-12-29T04:16:35.350Z,0
2022-12-29T04:17:51.678Z,0
2022-12-29T04:19:07.975Z,0
2022-12-29T04:20:24.229Z,0
2022-12-29T04:21:40.536Z,0
2022-12-29T04:22:56.851Z,0
2022-12-29T04:24:12.128Z,0
2022-12-29T04:25:28.456Z,0
2022-12-29T04:26:44.748Z,0
2022-12-29T04:28:01.012Z,0
2022-12-29T04:29:17.313Z,0
2022-12-29T04:30:33.634Z,0
2022-12-29T04:31:49.898Z,0
2022-12-29T04:33:06.230Z,0
2022-12-29T04:34:22.512Z,0
2022-12-29T04:35:38.820Z,0
2022-12-29T04:36:55.078Z,0
2022-12-29T04:38:11.400Z,0
2022-12-29T04:39:27.669Z,0
2022-12-29T04:40:42.959Z,0
2022-12-29T04:41:59.257Z,0
2022-12-29T04:43:15.549Z,0
2022-12-29T04:44:31.843Z,0
2022-12-29T04:45:48.179Z,0
2022-12-29T04:47:04.434Z,0
2022-12-29T04:48:20.734Z,0
2022-12-29T04:49:37.020Z,0
2022-12-29T04:50:53.314Z,0
2022-12-29T04:52:09.610Z,0
2022-12-29T04:53:25.901Z,0
2022-12-29T04:54:42.198Z,0
2022-12-29T04:55:58.523Z,0
2022-12-29T04:57:13.797Z,0
2022-12-29T04:58:30.135Z,0
2022-12-29T04:59:46.388Z,0
2022-12-29T05:01:02.719Z,0
2022-12-29T05:03:35.272Z,0
2022-12-29T05:04:51.600Z,0
2022-12-29T05:06:07.898Z,0
2022-12-29T05:07:24.153Z,0
2022-12-29T05:08:40.489Z,0
2022-12-29T05:09:56.753Z,0
2022-12-29T05:11:13.047Z,0
2022-12-29T05:12:29.368Z,0
2022-12-29T05:13:45.751Z,0
2022-12-29T05:15:02.053Z,0
2022-12-29T05:16:18.366Z,0
2022-12-29T05:17:34.630Z,0
2022-12-29T05:18:50.918Z,0
2022-12-29T05:20:07.214Z,0
2022-12-29T05:21:23.518Z,0
2022-12-29T05:23:56.130Z,0
2022-12-29T05:25:12.425Z,0
2022-12-29T05:26:28.732Z,0
2022-12-29T05:27:44.984Z,0
2022-12-29T05:29:01.280Z,0
2022-12-29T05:30:16.596Z,0
2022-12-29T05:31:32.878Z,0
2022-12-29T05:32:49.166Z,0
2022-12-29T05:34:05.475Z,0
2022-12-29T05:35:21.759Z,0
2022-12-29T05:36:38.079Z,0
2022-12-29T05:37:54.340Z,0
2022-12-29T05:39:10.658Z,0
2022-12-29T05:40:26.931Z,0
2022-12-29T05:41:43.223Z,0
2022-12-29T05:42:59.529Z,0
2022-12-29T05:44:15.839Z,0
2022-12-29T05:45:32.111Z,0
2022-12-29T05:46:47.430Z,0
2022-12-29T05:48:03.711Z,0
2022-12-29T05:49:20.000Z,0
2022-12-29T05:50:36.297Z,0
2022-12-29T05:51:52.606Z,0
2022-12-29T05:53:08.889Z,0
2022-12-29T05:54:25.179Z,0
2022-12-29T05:55:41.483Z,0
2022-12-29T05:56:57.780Z,0
2022-12-29T05:58:14.070Z,0
2022-12-29T05:59:30.359Z,0
2022-12-29T06:00:46.652Z,0
2022-12-29T06:02:02.940Z,0
2022-12-29T06:03:18.255Z,0
2022-12-29T06:04:34.560Z,0
2022-12-29T06:05:50.841Z,0
2022-12-29T06:07:07.131Z,0
2022-12-29T06:08:23.435Z,0
2022-12-29T06:09:39.721Z,0
2022-12-29T06:10:56.015Z,0
2022-12-29T06:12:12.319Z,0
2022-12-29T06:13:28.623Z,0
2022-12-29T06:14:44.916Z,0
2022-12-29T06:16:01.193Z,0
2022-12-29T06:17:17.498Z,0
2022-12-29T06:18:33.783Z,0
2022-12-29T06:19:49.084Z,0
2022-12-29T06:21:05.391Z,0
2022-12-29T06:22:21.702Z,0
2022-12-29T06:23:37.971Z,0
2022-12-29T06:24:54.283Z,0
2022-12-29T06:26:10.564Z,0
2022-12-29T06:27:26.859Z,0
2022-12-29T06:28:43.147Z,0
2022-12-29T06:29:59.463Z,0
2022-12-29T06:31:15.732Z,0
2022-12-29T06:32:32.042Z,0
2022-12-29T06:33:48.334Z,0
2022-12-29T06:35:04.638Z,0
2022-12-29T06:36:19.934Z,0
2022-12-29T06:37:36.241Z,0
2022-12-29T06:38:52.512Z,0
2022-12-29T06:40:08.812Z,0
2022-12-29T06:41:25.107Z,0
2022-12-29T06:42:41.397Z,0
2022-12-29T06:43:57.701Z,0
2022-12-29T06:45:13.988Z,0
2022-12-29T06:46:30.285Z,0
2022-12-29T06:47:46.575Z,0
2022-12-29T06:49:02.868Z,0
2022-12-29T06:50:19.152Z,0
2022-12-29T06:51:35.399Z,1
2022-12-29T06:52:50.670Z,1
2022-12-29T06:54:06.899Z,1
2022-12-29T06:55:23.155Z,2
2022-12-29T06:56:39.384Z,1
2022-12-29T06:57:55.628Z,1
2022-12-29T06:59:11.868Z,2
2022-12-29T07:00:28.106Z,3
2022-12-29T07:01:44.337Z,4
2022-12-29T07:03:00.578Z,5
2022-12-29T07:04:16.830Z,6
2022-12-29T07:05:33.053Z,7
2022-12-29T07:06:49.311Z,7
2022-12-29T07:08:05.543Z,8
2022-12-29T07:09:20.786Z,11
2022-12-29T07:10:37.040Z,17
2022-12-29T07:11:53.270Z,14
2022-12-29T07:13:09.509Z,14
2022-12-29T07:14:25.756Z,19
2022-12-29T07:15:41.989Z,23
2022-12-29T07:16:57.248Z,25
2022-12-29T07:18:13.515Z,24
2022-12-29T07:19:29.740Z,30
2022-12-29T07:20:45.992Z,27
2022-12-29T07:22:02.220Z,28
2022-12-29T07:23:18.454Z,35
2022-12-29T07:24:34.682Z,40
2022-12-29T07:25:50.922Z,42
2022-12-29T07:27:07.166Z,43
2022-12-29T07:28:23.407Z,40
2022-12-29T07:29:39.643Z,36
2022-12-29T07:30:55.894Z,40
2022-12-29T07:32:12.127Z,37
2022-12-29T07:33:27.389Z,41
2022-12-29T07:34:43.625Z,47
2022-12-29T07:35:59.870Z,53
2022-12-29T07:37:16.098Z,62
2022-12-29T07:38:32.336Z,65
2022-12-29T07:39:48.588Z,70
2022-12-29T07:41:04.827Z,73
2022-12-29T07:42:21.054Z,78
2022-12-29T07:43:37.291Z,78
2022-12-29T07:44:53.540Z,82
2022-12-29T07:46:09.791Z,80
2022-12-29T07:47:26.030Z,81
2022-12-29T07:48:42.245Z,84
2022-12-29T07:49:57.508Z,85
2022-12-29T07:51:13.744Z,75
2022-12-29T07:52:29.983Z,80
2022-12-29T07:53:46.233Z,73
2022-12-29T07:55:02.463Z,82
2022-12-29T07:56:18.724Z,82
2022-12-29T07:57:34.943Z,85
2022-12-29T07:58:51.191Z,91
2022-12-29T08:00:07.421Z,104
2022-12-29T08:01:23.681Z,122
2022-12-29T08:02:39.914Z,142
2022-12-29T08:03:56.138Z,156
2022-12-29T08:05:12.401Z,164
2022-12-29T08:06:27.657Z,169
2022-12-29T08:07:43.884Z,167
2022-12-29T08:09:00.130Z,164
2022-12-29T08:10:16.368Z,152
2022-12-29T08:11:32.620Z,141
2022-12-29T08:12:48.845Z,148
2022-12-29T08:14:05.096Z,148
2022-12-29T08:15:21.327Z,142
2022-12-29T08:16:37.567Z,150
2022-12-29T08:17:53.790Z,152
2022-12-29T08:19:10.038Z,141
2022-12-29T08:20:26.276Z,130
2022-12-29T08:21:42.523Z,123
2022-12-29T08:22:58.884Z,102
2022-12-29T08:24:15.122Z,91
2022-12-29T08:25:31.368Z,100
2022-12-29T08:26:47.606Z,95
2022-12-29T08:28:03.831Z,141
2022-12-29T08:29:20.082Z,174
2022-12-29T08:30:36.325Z,177
2022-12-29T08:31:52.548Z,142
2022-12-29T08:33:08.795Z,106
2022-12-29T08:34:25.045Z,74
2022-12-29T08:35:41.290Z,86
2022-12-29T08:36:57.519Z,77
2022-12-29T08:38:13.748Z,90
2022-12-29T08:39:29.021Z,100
2022-12-29T08:40:45.254Z,115
2022-12-29T08:42:01.510Z,104
2022-12-29T08:43:17.733Z,125
2022-12-29T08:44:33.979Z,131
2022-12-29T08:45:50.219Z,142
2022-12-29T08:47:06.442Z,130
2022-12-29T08:48:22.682Z,108
2022-12-29T08:49:38.953Z,95
2022-12-29T08:50:55.159Z,116
2022-12-29T08:52:11.414Z,137
2022-12-29T08:53:27.641Z,158
2022-12-29T08:54:43.880Z,186
2022-12-29T08:55:59.153Z,199
2022-12-29T08:57:15.374Z,232
2022-12-29T08:58:31.612Z,216
2022-12-29T08:59:47.851Z,225
2022-12-29T09:01:04.091Z,175
2022-12-29T09:02:20.334Z,192
2022-12-29T09:03:36.580Z,277
2022-12-29T09:04:52.837Z,347
2022-12-29T09:06:09.050Z,376
2022-12-29T09:07:25.295Z,411
2022-12-29T09:08:41.544Z,408
2022-12-29T09:09:57.772Z,192
2022-12-29T09:11:14.015Z,913
2022-12-29T09:12:29.294Z,859
2022-12-29T09:13:45.505Z,969
2022-12-29T09:15:01.762Z,698
2022-12-29T09:16:18.010Z,973
2022-12-29T09:17:34.235Z,989
2022-12-29T09:18:50.471Z,780
2022-12-29T09:20:06.726Z,464
2022-12-29T09:21:22.947Z,2001
2022-12-29T09:22:39.193Z,1885
2022-12-29T09:23:55.440Z,304
2022-12-29T09:25:11.674Z,987
2022-12-29T09:26:27.912Z,1492
2022-12-29T09:27:44.157Z,1079
2022-12-29T09:28:59.411Z,1788
2022-12-29T09:30:15.646Z,966
2022-12-29T09:31:31.897Z,1914
2022-12-29T09:32:48.137Z,1667
2022-12-29T09:34:04.378Z,1088
2022-12-29T09:35:20.609Z,1340
2022-12-29T09:36:36.849Z,1565
2022-12-29T09:37:53.100Z,2223
2022-12-29T09:39:09.330Z,1327
2022-12-29T09:40:25.571Z,2780
2022-12-29T09:41:41.815Z,2573
2022-12-29T09:42:58.050Z,2224
2022-12-29T09:44:14.288Z,2489
2022-12-29T09:45:29.549Z,3005
2022-12-29T09:46:45.778Z,2206
2022-12-29T09:48:02.040Z,2568
2022-12-29T09:49:18.264Z,3559
2022-12-29T09:50:34.497Z,1919
2022-12-29T09:51:50.744Z,2074
2022-12-29T09:53:06.986Z,3117
2022-12-29T09:54:23.225Z,1844
2022-12-29T09:55:39.468Z,2809
2022-12-29T09:56:55.692Z,2731
2022-12-29T09:58:11.932Z,1870
2022-12-29T09:59:28.183Z,653
2022-12-29T10:00:44.416Z,305
2022-12-29T10:01:59.662Z,320
2022-12-29T10:03:15.903Z,276
2022-12-29T10:04:32.156Z,214
2022-12-29T10:05:48.378Z,207
2022-12-29T10:07:04.630Z,193
2022-12-29T10:08:20.857Z,203
2022-12-29T10:09:37.099Z,381
2022-12-29T10:10:53.339Z,520
2022-12-29T10:12:09.584Z,407
2022-12-29T10:13:25.823Z,476
2022-12-29T10:14:42.057Z,323
2022-12-29T10:15:58.302Z,248
2022-12-29T10:17:14.544Z,220
2022-12-29T10:18:29.801Z,225
2022-12-29T10:19:46.041Z,214
2022-12-29T10:21:02.281Z,194
2022-12-29T10:22:18.508Z,172
2022-12-29T10:23:34.754Z,174
2022-12-29T10:24:51.001Z,192
2022-12-29T10:26:07.229Z,179
2022-12-29T10:27:23.474Z,200
2022-12-29T10:28:39.707Z,212
2022-12-29T10:29:55.959Z,163
2022-12-29T10:31:12.200Z,127
2022-12-29T10:32:28.438Z,192
2022-12-29T10:33:44.684Z,230
2022-12-29T10:34:59.930Z,177
2022-12-29T10:36:16.160Z,272
2022-12-29T10:37:32.412Z,308
2022-12-29T10:38:48.644Z,725
2022-12-29T10:40:04.879Z,809
2022-12-29T10:41:21.132Z,921
2022-12-29T10:42:37.364Z,479
2022-12-29T10:43:53.602Z,502
2022-12-29T10:45:09.852Z,407
2022-12-29T10:46:26.081Z,279
2022-12-29T10:47:42.333Z,250
2022-12-29T10:48:58.554Z,284
2022-12-29T10:50:14.796Z,494
2022-12-29T10:51:30.054Z,1533
2022-12-29T10:52:46.294Z,3186
2022-12-29T10:54:02.545Z,546
2022-12-29T10:55:18.767Z,2612
2022-12-29T10:56:35.011Z,3298
2022-12-29T10:57:51.263Z,3397
2022-12-29T10:59:07.492Z,1088
2022-12-29T11:00:23.738Z,2644
2022-12-29T11:01:39.977Z,4245
2022-12-29T11:02:56.214Z,3047
2022-12-29T11:04:12.451Z,1110
2022-12-29T11:05:28.690Z,2903
2022-12-29T11:06:44.924Z,3020
2022-12-29T11:08:00.192Z,3361
2022-12-29T11:09:16.423Z,3746
2022-12-29T11:10:32.669Z,6240
2022-12-29T11:11:48.894Z,1416
2022-12-29T11:13:05.134Z,1990
2022-12-29T11:14:21.370Z,4332
2022-12-29T11:15:37.617Z,5180
2022-12-29T11:16:53.848Z,787
2022-12-29T11:18:10.103Z,4673
2022-12-29T11:19:26.327Z,3333
2022-12-29T11:20:42.571Z,1439
2022-12-29T11:21:58.800Z,6262
2022-12-29T11:23:15.035Z,3386
2022-12-29T11:24:30.293Z,1633
2022-12-29T11:25:46.540Z,640
2022-12-29T11:27:02.773Z,585
2022-12-29T11:28:19.013Z,565
2022-12-29T11:29:35.261Z,514
2022-12-29T11:30:51.482Z,1153
2022-12-29T11:32:06.756Z,3524
2022-12-29T11:33:22.991Z,6614
2022-12-29T11:34:39.232Z,1434
2022-12-29T11:35:55.476Z,3092
2022-12-29T11:37:11.711Z,4138
2022-12-29T11:38:27.949Z,5166
2022-12-29T11:39:44.185Z,884
2022-12-29T11:41:00.419Z,855
2022-12-29T11:42:16.652Z,4621
2022-12-29T11:43:32.892Z,3613
2022-12-29T11:44:49.136Z,3802
2022-12-29T11:46:05.376Z,4773
2022-12-29T11:47:21.628Z,4692
2022-12-29T11:48:37.849Z,2070
2022-12-29T11:49:53.117Z,7043
2022-12-29T11:51:09.348Z,1369
2022-12-29T11:52:25.587Z,2868
2022-12-29T11:53:41.813Z,6211
2022-12-29T11:54:58.066Z,2344
2022-12-29T11:56:14.307Z,1485
2022-12-29T11:57:30.541Z,2733
2022-12-29T11:58:46.768Z,1326
2022-12-29T12:00:03.015Z,759
2022-12-29T12:01:19.243Z,582
2022-12-29T12:02:35.489Z,170
2022-12-29T12:03:51.733Z,2182
2022-12-29T12:05:07.974Z,2597
2022-12-29T12:06:23.224Z,1825
2022-12-29T12:07:39.461Z,2607
2022-12-29T12:08:55.705Z,911
2022-12-29T12:10:11.939Z,2465
2022-12-29T12:11:28.187Z,3354
2022-12-29T12:12:44.422Z,461
2022-12-29T12:14:00.671Z,1599
2022-12-29T12:15:16.897Z,855
2022-12-29T12:16:33.131Z,524
2022-12-29T12:17:49.378Z,394
2022-12-29T12:19:05.615Z,1414
2022-12-29T12:20:21.864Z,663
2022-12-29T12:21:38.088Z,937
2022-12-29T12:22:53.351Z,1261
2022-12-29T12:24:09.588Z,5304
2022-12-29T12:25:25.822Z,1921
2022-12-29T12:26:42.052Z,1341
2022-12-29T12:27:58.300Z,2746
2022-12-29T12:29:14.535Z,2929
2022-12-29T12:30:30.784Z,5208
2022-12-29T12:31:47.010Z,1130
2022-12-29T12:33:03.261Z,6326
2022-12-29T12:34:19.482Z,1811
2022-12-29T12:35:35.733Z,1235
2022-12-29T12:36:51.964Z,4363
2022-12-29T12:38:08.213Z,5480
2022-12-29T12:39:23.462Z,1017
2022-12-29T12:40:39.692Z,3577
2022-12-29T12:41:55.927Z,2690
2022-12-29T12:43:12.178Z,1316
2022-12-29T12:44:28.408Z,3349
2022-12-29T12:45:44.659Z,1576
2022-12-29T12:47:00.889Z,3142
2022-12-29T12:48:17.131Z,2989
2022-12-29T12:49:33.367Z,2368
2022-12-29T12:50:49.596Z,2275
2022-12-29T12:52:05.843Z,886
2022-12-29T12:53:22.074Z,1471
2022-12-29T12:54:38.327Z,938
2022-12-29T12:55:53.566Z,829
2022-12-29T12:57:09.809Z,640
2022-12-29T12:58:26.060Z,577
2022-12-29T12:59:42.282Z,436
2022-12-29T13:00:58.525Z,516
2022-12-29T13:02:14.763Z,1086
2022-12-29T13:03:31.017Z,789
2022-12-29T13:04:47.242Z,674
2022-12-29T13:06:03.485Z,546
2022-12-29T13:07:19.731Z,474
2022-12-29T13:08:35.965Z,345
2022-12-29T13:09:52.206Z,325
2022-12-29T13:11:08.440Z,566
2022-12-29T13:12:23.687Z,682
2022-12-29T13:13:39.936Z,538
2022-12-29T13:14:56.169Z,392
2022-12-29T13:16:12.414Z,439
2022-12-29T13:17:28.647Z,541
2022-12-29T13:18:44.883Z,449
2022-12-29T13:20:01.122Z,282
2022-12-29T13:21:17.364Z,243
2022-12-29T13:22:33.597Z,219
2022-12-29T13:23:49.850Z,189
2022-12-29T13:25:06.084Z,160
2022-12-29T13:26:22.321Z,132
2022-12-29T13:27:38.561Z,197
2022-12-29T13:28:53.810Z,507
2022-12-29T13:30:10.057Z,690
2022-12-29T13:31:26.302Z,651
2022-12-29T13:32:42.526Z,604
2022-12-29T13:33:58.774Z,584
2022-12-29T13:35:15.011Z,509
2022-12-29T13:36:31.246Z,575
2022-12-29T13:37:47.487Z,591
2022-12-29T13:39:03.731Z,521
2022-12-29T13:40:19.955Z,534
2022-12-29T13:41:36.209Z,534
2022-12-29T13:42:52.434Z,497
2022-12-29T13:44:08.695Z,423
2022-12-29T13:45:23.938Z,338
2022-12-29T13:46:40.186Z,235
2022-12-29T13:47:56.418Z,474
2022-12-29T13:49:12.646Z,479
2022-12-29T13:50:28.903Z,471
2022-12-29T13:51:45.134Z,406
2022-12-29T13:53:01.358Z,351
2022-12-29T13:54:17.612Z,252
2022-12-29T13:55:33.846Z,346
2022-12-29T13:56:50.073Z,787
2022-12-29T13:58:06.323Z,460
2022-12-29T13:59:22.557Z,304
2022-12-29T14:00:38.800Z,345
2022-12-29T14:01:54.062Z,358
2022-12-29T14:03:10.285Z,387
2022-12-29T14:04:26.525Z,402
2022-12-29T14:05:42.785Z,393
2022-12-29T14:06:59.031Z,423
2022-12-29T14:08:15.250Z,366
2022-12-29T14:09:31.499Z,324
2022-12-29T14:10:47.735Z,323
2022-12-29T14:12:03.970Z,316
2022-12-29T14:13:20.195Z,276
2022-12-29T14:14:36.438Z,334
2022-12-29T14:15:52.689Z,412
2022-12-29T14:17:08.912Z,406
2022-12-29T14:18:24.183Z,347
2022-12-29T14:19:40.421Z,260
2022-12-29T14:20:56.659Z,274
2022-12-29T14:22:12.890Z,233
2022-12-29T14:23:29.133Z,225
2022-12-29T14:24:45.381Z,195
2022-12-29T14:26:01.609Z,120
2022-12-29T14:27:17.842Z,124
2022-12-29T14:28:34.087Z,134
2022-12-29T14:29:50.324Z,159
2022-12-29T14:31:06.570Z,173
2022-12-29T14:32:22.810Z,135
2022-12-29T14:33:39.043Z,105
2022-12-29T14:34:54.308Z,91
2022-12-29T14:36:10.549Z,58
2022-12-29T14:37:26.776Z,50
2022-12-29T14:38:43.013Z,53
2022-12-29T14:39:59.260Z,66
2022-12-29T14:41:15.485Z,80
2022-12-29T14:42:31.732Z,77
2022-12-29T14:43:47.970Z,79
2022-12-29T14:45:04.216Z,35
2022-12-29T14:46:20.441Z,110
2022-12-29T14:47:36.699Z,65
2022-12-29T14:48:52.942Z,46
2022-12-29T14:50:09.160Z,22
2022-12-29T14:51:24.428Z,33
2022-12-29T14:52:40.657Z,31
2022-12-29T14:53:56.908Z,33
2022-12-29T14:55:13.148Z,28
2022-12-29T14:56:29.380Z,18
2022-12-29T14:57:45.618Z,21
2022-12-29T14:59:01.862Z,15
2022-12-29T15:00:18.105Z,9
2022-12-29T15:01:34.327Z,9
2022-12-29T15:02:50.592Z,14
2022-12-29T15:04:06.831Z,12
2022-12-29T15:05:23.061Z,10
2022-12-29T15:06:39.295Z,11
2022-12-29T15:07:54.539Z,13
2022-12-29T15:09:10.776Z,14
2022-12-29T15:10:27.031Z,15
2022-12-29T15:11:43.254Z,17
2022-12-29T15:12:59.496Z,12
2022-12-29T15:14:15.752Z,12
2022-12-29T15:15:31.999Z,11
2022-12-29T15:16:48.228Z,11
2022-12-29T15:18:04.471Z,11
2022-12-29T15:19:20.694Z,9
2022-12-29T15:20:36.944Z,7
2022-12-29T15:21:53.192Z,4
2022-12-29T15:23:09.415Z,1
2022-12-29T15:24:24.682Z,1
2022-12-29T15:25:40.909Z,1
2022-12-29T15:26:57.152Z,2
2022-12-29T15:28:13.415Z,2
2022-12-29T15:29:29.643Z,2
2022-12-29T15:30:45.878Z,1
2022-12-29T15:32:02.117Z,1
2022-12-29T15:33:18.354Z,3
2022-12-29T15:34:34.585Z,5
2022-12-29T15:35:50.888Z,0
2022-12-29T15:37:07.187Z,0
2022-12-29T15:38:23.472Z,0
2022-12-29T15:39:39.707Z,1
2022-12-29T15:40:54.973Z,1
2022-12-29T15:42:11.256Z,0
2022-12-29T15:43:27.543Z,0
2022-12-29T15:44:43.798Z,1
2022-12-29T15:46:00.059Z,1
2022-12-29T15:47:15.304Z,1
2022-12-29T15:48:31.546Z,1
2022-12-29T15:49:47.789Z,1
2022-12-29T15:51:04.068Z,0
2022-12-29T15:52:20.361Z,0
2022-12-29T15:53:36.669Z,0
2022-12-29T15:54:52.953Z,0
2022-12-29T15:56:09.259Z,0
2022-12-29T15:57:25.550Z,0
2022-12-29T15:58:41.833Z,0
2022-12-29T15:59:58.125Z,0
2022-12-29T16:01:14.432Z,0
2022-12-29T16:02:30.721Z,0
2022-12-29T16:03:46.039Z,0
2022-12-29T16:05:02.329Z,0
2022-12-29T16:06:18.608Z,0
2022-12-29T16:07:34.903Z,0
2022-12-29T16:08:51.211Z,0
2022-12-29T16:10:07.495Z,0
2022-12-29T16:11:23.799Z,0
2022-12-29T16:12:40.083Z,0
2022-12-29T16:13:56.373Z,0
2022-12-29T16:15:12.667Z,0
2022-12-29T16:16:28.960Z,0
2022-12-29T16:17:45.263Z,0
2022-12-29T16:19:01.549Z,0
2022-12-29T16:20:16.856Z,0
2022-12-29T16:21:33.148Z,0
2022-12-29T16:22:49.455Z,0
2022-12-29T16:24:05.752Z,0
2022-12-29T16:25:22.036Z,0
2022-12-29T16:26:38.328Z,0
2022-12-29T16:27:54.619Z,0
2022-12-29T16:29:10.931Z,0
2022-12-29T16:30:27.206Z,0
2022-12-29T16:31:43.514Z,0
2022-12-29T16:32:59.805Z,0
2022-12-29T16:34:16.087Z,0
2022-12-29T16:35:32.379Z,0
2022-12-29T16:36:47.706Z,0
2022-12-29T16:38:03.986Z,0
2022-12-29T16:39:20.289Z,0
2022-12-29T16:40:36.582Z,0
2022-12-29T16:41:52.882Z,0
2022-12-29T16:43:09.165Z,0
2022-12-29T16:44:25.459Z,0
2022-12-29T16:45:41.770Z,0
2022-12-29T16:46:58.053Z,0
2022-12-29T16:48:14.342Z,0
2022-12-29T16:49:30.646Z,0
2022-12-29T16:50:46.927Z,0
2022-12-29T16:52:03.179Z,1
2022-12-29T16:53:18.435Z,1
2022-12-29T16:54:34.669Z,1
2022-12-29T16:55:50.975Z,0
2022-12-29T16:57:07.269Z,0
2022-12-29T16:58:23.501Z,1
2022-12-29T16:59:39.791Z,0
2022-12-29T17:00:56.088Z,0
2022-12-29T17:02:12.387Z,0
2022-12-29T17:03:28.676Z,0
2022-12-29T17:04:44.994Z,0
2022-12-29T17:06:01.281Z,0
2022-12-29T17:07:17.561Z,0
2022-12-29T17:08:33.860Z,0
2022-12-29T17:09:49.163Z,0
2022-12-29T17:11:05.471Z,0
2022-12-29T17:12:21.759Z,0
2022-12-29T17:13:38.056Z,0
2022-12-29T17:14:54.344Z,0
2022-12-29T17:16:10.640Z,0
2022-12-29T17:17:26.936Z,0
2022-12-29T17:18:43.240Z,0
2022-12-29T17:19:59.530Z,0
2022-12-29T17:21:15.809Z,0
2022-12-29T17:22:32.103Z,0
2022-12-29T17:23:48.398Z,0
2022-12-29T17:25:04.694Z,0
2022-12-29T17:26:20.015Z,0
2022-12-29T17:27:36.297Z,0
2022-12-29T17:28:52.601Z,0
2022-12-29T17:30:08.900Z,0
2022-12-29T17:31:25.191Z,0
2022-12-29T17:32:41.486Z,0
2022-12-29T17:33:57.769Z,0
2022-12-29T17:35:14.074Z,0
2022-12-29T17:36:30.362Z,0
2022-12-29T17:37:46.657Z,0
2022-12-29T17:39:02.952Z,0
2022-12-29T17:40:19.248Z,0
2022-12-29T17:41:35.536Z,0
2022-12-29T17:42:50.840Z,0
2022-12-29T17:44:07.135Z,0
2022-12-29T17:45:23.444Z,0
2022-12-29T17:46:39.721Z,0
2022-12-29T17:47:56.032Z,0
2022-12-29T17:49:12.319Z,0
2022-12-29T17:50:28.616Z,0
2022-12-29T17:51:44.912Z,0
2022-12-29T17:53:01.219Z,0
2022-12-29T17:54:17.495Z,0
2022-12-29T17:55:33.801Z,0
2022-12-29T17:56:50.082Z,0
2022-12-29T17:58:06.398Z,0
2022-12-29T17:59:21.690Z,0
2022-12-29T18:00:37.988Z,0
2022-12-29T18:01:54.267Z,0
2022-12-29T18:03:10.559Z,0
2022-12-29T18:04:26.857Z,0
2022-12-29T18:05:43.164Z,0
2022-12-29T18:06:59.470Z,0
2022-12-29T18:08:15.736Z,0
2022-12-29T18:09:32.043Z,0
2022-12-29T18:10:48.342Z,0
2022-12-29T18:12:04.628Z,0